Time;durP1;ratioP1;P1;durP2;ratioP2;P2;SDS_P1;SDS_P2;PMS_P1;PMS_P2;Temp;Humidity;BMP_temperature;BMP_pressure;BME280_temperature;BME280_humidity;BME280_pressure;Samples;Min_cycle;Max_cycle;Signal;HPM_P1;HPM_P2
2022/05/16 00:00:40;;;;;;;2.22;1.90;;;21.90;50.40;;;;;;4976319;28;20198;-71
2022/05/16 00:03:08;;;;;;;3.13;2.10;;;21.90;50.30;;;;;;4975309;28;20573;-71
2022/05/16 00:05:35;;;;;;;2.97;2.05;;;21.90;50.20;;;;;;4974620;28;20706;-71
2022/05/16 00:08:02;;;;;;;2.28;2.03;;;21.90;50.60;;;;;;4975009;28;20289;-71
2022/05/16 00:10:29;;;;;;;2.47;1.95;;;21.80;51.00;;;;;;4976061;28;20194;-71
2022/05/16 00:12:59;;;;;;;2.10;1.92;;;21.80;50.40;;;;;;4974547;28;20288;-71
2022/05/16 00:15:26;;;;;;;2.28;2.00;;;21.80;50.40;;;;;;4974456;28;20222;-71
2022/05/16 00:17:53;;;;;;;3.20;2.22;;;21.80;50.50;;;;;;4975586;28;20221;-71
2022/05/16 00:20:21;;;;;;;2.78;1.98;;;21.80;50.50;;;;;;4974679;28;20202;-69
2022/05/16 00:23:10;;;;;;;2.63;2.42;;;21.80;50.60;;;;;;4976092;28;20322;-71
2022/05/16 00:25:37;;;;;;;4.30;2.28;;;21.70;50.50;;;;;;4974331;28;20221;-71
2022/05/16 00:28:06;;;;;;;2.50;2.17;;;21.70;50.60;;;;;;4974235;28;20213;-71
2022/05/16 00:30:33;;;;;;;2.38;2.00;;;21.70;50.60;;;;;;4974356;28;20206;-70
2022/05/16 00:33:00;;;;;;;2.50;2.30;;;21.70;50.50;;;;;;4974235;28;20190;-71
2022/05/16 00:35:27;;;;;;;2.03;1.92;;;21.70;50.60;;;;;;4974051;28;20225;-71
2022/05/16 00:37:54;;;;;;;2.22;2.13;;;21.60;50.50;;;;;;4973836;28;20209;-71
2022/05/16 00:40:22;;;;;;;2.55;2.33;;;21.70;50.70;;;;;;4974477;28;20201;-71
2022/05/16 00:42:49;;;;;;;3.00;1.92;;;21.60;50.60;;;;;;4975315;28;20194;-71
2022/05/16 00:45:18;;;;;;;2.80;2.17;;;21.60;50.60;;;;;;4975265;28;20702;-71
2022/05/16 00:47:45;;;;;;;3.85;2.15;;;21.60;50.70;;;;;;4974266;28;20198;-70
2022/05/16 00:50:12;;;;;;;2.50;2.30;;;21.60;50.70;;;;;;4974907;28;20627;-71
2022/05/16 00:52:41;;;;;;;2.30;2.10;;;21.60;50.80;;;;;;4975990;28;20681;-71
2022/05/16 00:55:10;;;;;;;2.10;1.95;;;21.60;50.80;;;;;;4974062;28;20222;-71
2022/05/16 00:57:39;;;;;;;3.47;2.20;;;21.60;50.90;;;;;;4974096;28;20202;-71
2022/05/16 01:00:08;;;;;;;2.58;2.38;;;21.60;50.90;;;;;;4974153;28;20229;-71
2022/05/16 01:05:22;;;;;;;2.60;2.40;;;21.50;50.80;;;;;;4991266;28;20228;-69
2022/05/16 01:07:49;;;;;;;2.30;2.10;;;21.50;50.70;;;;;;4982243;28;20194;-70
2022/05/16 01:10:18;;;;;;;2.25;2.05;;;21.50;50.80;;;;;;4975695;28;20194;-70
2022/05/16 01:12:47;;;;;;;2.33;2.13;;;21.50;50.90;;;;;;4974089;28;20254;-71
2022/05/16 01:15:14;;;;;;;2.45;2.05;;;21.50;50.90;;;;;;4978703;28;20224;-71
2022/05/16 01:17:43;;;;;;;2.30;2.10;;;21.50;50.90;;;;;;4975960;28;20236;-71
2022/05/16 01:20:11;;;;;;;7.18;2.13;;;21.50;50.80;;;;;;4974446;28;20222;-71
2022/05/16 01:22:40;;;;;;;2.08;1.98;;;21.50;50.90;;;;;;4977204;28;20667;-72
2022/05/16 01:25:10;;;;;;;2.40;2.20;;;21.50;51.00;;;;;;4975528;28;20222;-71
2022/05/16 01:27:46;;;;;;;2.58;2.00;;;21.50;50.90;;;;;;4973950;28;20194;-71
2022/05/16 01:30:14;;;;;;;2.17;2.08;;;21.40;50.80;;;;;;4974007;28;20773;-70
2022/05/16 01:32:41;;;;;;;2.70;2.10;;;21.50;50.90;;;;;;4974833;28;20194;-71
2022/05/16 01:35:09;;;;;;;2.42;2.10;;;21.40;51.00;;;;;;4973692;28;20245;-71
2022/05/16 01:40:22;;;;;;;2.40;2.20;;;21.40;51.10;;;;;;4974872;28;20253;-71
2022/05/16 01:42:49;;;;;;;2.20;2.00;;;21.40;51.00;;;;;;4975175;28;20194;-71
2022/05/16 01:45:16;;;;;;;2.35;1.92;;;21.40;51.20;;;;;;4973491;28;20218;-71
2022/05/16 01:47:44;;;;;;;2.40;2.20;;;21.40;51.10;;;;;;4973407;28;20670;-71
2022/05/16 01:50:11;;;;;;;2.83;2.05;;;21.40;51.20;;;;;;4974548;28;20194;-71
2022/05/16 01:52:38;;;;;;;2.10;1.90;;;21.40;51.20;;;;;;4974682;28;20209;-71
2022/05/16 01:55:06;;;;;;;2.20;2.00;;;21.40;51.20;;;;;;4974691;28;20301;-71
2022/05/16 01:57:34;;;;;;;2.40;2.20;;;21.40;51.30;;;;;;4974421;28;20217;-71
2022/05/16 02:00:01;;;;;;;2.83;2.28;;;21.40;51.30;;;;;;4975715;28;20218;-71
2022/05/16 02:02:39;;;;;;;2.53;2.17;;;21.30;51.20;;;;;;4978057;28;20186;-71
2022/05/16 02:05:06;;;;;;;2.00;1.90;;;21.30;51.20;;;;;;4976683;28;20218;-71
2022/05/16 02:07:33;;;;;;;2.30;2.05;;;21.30;51.20;;;;;;4976570;28;20225;-71
2022/05/16 02:10:00;;;;;;;2.22;1.98;;;21.30;51.20;;;;;;4976802;28;20570;-71
2022/05/16 02:12:28;;;;;;;2.13;1.92;;;21.30;51.20;;;;;;4976672;28;20194;-70
2022/05/16 02:15:03;;;;;;;2.15;2.05;;;21.30;51.20;;;;;;4976376;28;20297;-71
2022/05/16 02:17:33;;;;;;;2.30;2.10;;;21.30;51.20;;;;;;4977816;28;20224;-72
2022/05/16 02:20:00;;;;;;;2.17;1.98;;;21.30;51.30;;;;;;4976827;28;20272;-72
2022/05/16 02:25:12;;;;;;;2.00;1.90;;;21.30;51.30;;;;;;4977566;28;20213;-72
2022/05/16 02:27:39;;;;;;;1.85;1.75;;;21.30;51.20;;;;;;4976481;28;20202;-72
2022/05/16 02:30:08;;;;;;;2.53;2.00;;;21.30;51.30;;;;;;4977739;28;20218;-72
2022/05/16 02:32:36;;;;;;;2.05;1.92;;;21.20;51.20;;;;;;4976810;28;20205;-72
2022/05/16 02:35:04;;;;;;;2.20;2.03;;;21.20;51.20;;;;;;4976113;28;20225;-72
2022/05/16 02:37:31;;;;;;;2.08;1.88;;;21.20;51.20;;;;;;4976012;28;20202;-72
2022/05/16 02:39:59;;;;;;;2.13;1.92;;;21.20;51.20;;;;;;4977564;28;20202;-71
2022/05/16 02:42:26;;;;;;;1.98;1.88;;;21.20;51.20;;;;;;4977351;28;20218;-72
2022/05/16 02:44:53;;;;;;;2.10;2.00;;;21.20;51.20;;;;;;4976203;28;20218;-72
2022/05/16 02:47:23;;;;;;;2.45;2.13;;;21.20;51.30;;;;;;4976510;28;20206;-72
2022/05/16 02:49:50;;;;;;;2.30;2.10;;;21.20;51.30;;;;;;4977126;28;20241;-72
2022/05/16 02:52:17;;;;;;;2.20;2.00;;;21.20;51.20;;;;;;4975682;28;20579;-72
2022/05/16 02:54:44;;;;;;;2.42;2.20;;;21.20;51.20;;;;;;4975677;28;20222;-72
2022/05/16 02:57:11;;;;;;;2.10;2.00;;;21.20;51.30;;;;;;4975733;28;20557;-72
2022/05/16 02:59:38;;;;;;;2.20;2.10;;;21.10;51.30;;;;;;4975592;28;20222;-72
2022/05/16 03:02:06;;;;;;;2.15;2.03;;;21.10;51.20;;;;;;4975464;28;20202;-72
2022/05/16 03:04:35;;;;;;;2.30;1.85;;;21.10;51.30;;;;;;4976434;28;20241;-70
2022/05/16 03:07:02;;;;;;;2.15;2.05;;;21.10;51.40;;;;;;4976907;28;20241;-72
2022/05/16 03:09:29;;;;;;;2.30;2.15;;;21.10;51.40;;;;;;4976344;28;20568;-72
2022/05/16 03:11:57;;;;;;;1.85;1.75;;;21.10;51.40;;;;;;4975336;28;20265;-72
2022/05/16 03:14:26;;;;;;;2.40;2.20;;;21.10;51.50;;;;;;4976608;28;20244;-72
2022/05/16 03:16:53;;;;;;;1.95;1.85;;;21.10;51.60;;;;;;4975542;28;20647;-72
2022/05/16 03:19:20;;;;;;;2.08;1.98;;;21.10;51.70;;;;;;4976974;28;20214;-72
2022/05/16 03:21:48;;;;;;;2.10;2.00;;;21.10;51.80;;;;;;4976724;28;20261;-72
2022/05/16 03:24:15;;;;;;;2.13;1.92;;;21.20;52.00;;;;;;4976567;28;20203;-72
2022/05/16 03:26:42;;;;;;;2.35;2.15;;;21.20;51.90;;;;;;4976256;28;20202;-71
2022/05/16 03:29:11;;;;;;;2.42;2.17;;;21.30;52.00;;;;;;4981814;28;20294;-71
2022/05/16 03:31:39;;;;;;;2.20;1.90;;;21.30;51.90;;;;;;4984000;28;20600;-72
2022/05/16 03:34:07;;;;;;;3.05;1.95;;;21.40;51.70;;;;;;4975201;28;20202;-71
2022/05/16 03:36:34;;;;;;;2.33;2.10;;;21.40;51.50;;;;;;4974880;28;20256;-71
2022/05/16 03:41:48;;;;;;;2.40;2.20;;;21.50;51.70;;;;;;4975086;28;20190;-71
2022/05/16 03:44:15;;;;;;;2.47;2.28;;;21.40;52.00;;;;;;4974836;28;20198;-71
2022/05/16 03:46:44;;;;;;;2.08;1.98;;;21.50;51.40;;;;;;4976173;28;20339;-72
2022/05/16 03:49:10;;;;;;;2.10;2.00;;;21.50;51.40;;;;;;4974616;28;20205;-72
2022/05/16 03:51:38;;;;;;;2.10;2.00;;;21.50;51.40;;;;;;4975948;28;20543;-72
2022/05/16 03:54:07;;;;;;;2.15;1.95;;;21.50;51.40;;;;;;4974647;28;20261;-71
2022/05/16 03:56:34;;;;;;;2.10;2.00;;;21.60;51.30;;;;;;4974424;28;20248;-71
2022/05/16 03:59:01;;;;;;;2.20;2.00;;;21.60;51.40;;;;;;4975581;28;20285;-72
2022/05/16 04:01:29;;;;;;;2.55;1.90;;;21.60;51.40;;;;;;4974394;28;20344;-72
2022/05/16 04:03:56;;;;;;;2.10;2.00;;;21.60;51.30;;;;;;4974559;28;20202;-72
2022/05/16 04:06:23;;;;;;;1.92;1.83;;;21.60;51.40;;;;;;4974429;28;20222;-72
2022/05/16 04:08:50;;;;;;;3.38;2.30;;;21.60;51.30;;;;;;4976072;28;20730;-72
2022/05/16 04:11:19;;;;;;;2.30;2.10;;;21.60;51.30;;;;;;4974629;28;20198;-72
2022/05/16 04:13:47;;;;;;;3.03;2.00;;;21.60;51.30;;;;;;4974315;28;20268;-72
2022/05/16 04:16:14;;;;;;;2.20;2.00;;;21.60;51.30;;;;;;4975567;28;20218;-72
2022/05/16 04:18:41;;;;;;;2.30;2.10;;;21.60;51.30;;;;;;4974270;28;20281;-71
2022/05/16 04:21:08;;;;;;;2.35;1.90;;;21.60;51.30;;;;;;4973969;28;20567;-72
2022/05/16 04:23:35;;;;;;;2.17;1.98;;;21.60;51.30;;;;;;4973820;28;20213;-71
2022/05/16 04:26:02;;;;;;;2.05;1.92;;;21.60;51.50;;;;;;4990292;23;20690;-62
2022/05/16 04:28:31;;;;;;;2.10;2.00;;;21.60;51.50;;;;;;4973702;28;20708;-62
2022/05/16 04:30:58;;;;;;;2.10;1.90;;;21.60;51.50;;;;;;4973815;28;20682;-62
2022/05/16 04:33:26;;;;;;;2.05;1.90;;;21.50;51.30;;;;;;4964949;28;20224;-62
2022/05/16 04:35:53;;;;;;;1.92;1.80;;;21.50;51.40;;;;;;4955520;28;20746;-62
2022/05/16 04:38:20;;;;;;;3.17;2.05;;;21.60;51.40;;;;;;4954273;28;20205;-62
2022/05/16 04:43:33;;;;;;;2.58;2.13;;;21.50;51.40;;;;;;4955448;28;20214;-62
2022/05/16 04:46:01;;;;;;;2.30;2.10;;;21.50;51.40;;;;;;4954061;28;20205;-62
2022/05/16 04:48:29;;;;;;;2.13;1.90;;;21.50;51.40;;;;;;4953870;28;20730;-62
2022/05/16 04:50:56;;;;;;;2.30;2.10;;;21.50;51.70;;;;;;4955246;28;20194;-62
2022/05/16 04:53:24;;;;;;;2.00;1.90;;;21.50;51.80;;;;;;4955054;28;20586;-62
2022/05/16 04:55:51;;;;;;;2.25;2.10;;;21.50;51.80;;;;;;4953846;29;20717;-62
2022/05/16 04:58:19;;;;;;;2.30;2.13;;;21.60;51.90;;;;;;4953842;29;20199;-62
2022/05/16 05:00:47;;;;;;;2.38;2.17;;;21.50;51.90;;;;;;4953864;28;20314;-62
2022/05/16 05:03:14;;;;;;;2.08;1.98;;;21.50;51.90;;;;;;4953817;28;20235;-62
2022/05/16 05:05:41;;;;;;;2.10;1.90;;;21.50;51.90;;;;;;4955103;28;20682;-62
2022/05/16 05:08:09;;;;;;;2.53;2.33;;;21.50;52.10;;;;;;4955106;28;20233;-62
2022/05/16 05:16:08;;;;;;;2.17;1.98;;;21.60;52.30;;;;;;4953912;28;20198;-63
2022/05/16 05:18:35;;;;;;;2.28;2.17;;;21.60;52.40;;;;;;4954004;29;20205;-63
2022/05/16 05:21:03;;;;;;;2.78;2.00;;;21.60;52.40;;;;;;4955372;28;20230;-62
2022/05/16 05:23:30;;;;;;;2.17;2.08;;;21.60;52.40;;;;;;4954934;28;20215;-62
2022/05/16 05:25:57;;;;;;;2.10;2.00;;;21.60;52.30;;;;;;4953768;28;20202;-62
2022/05/16 05:28:25;;;;;;;2.10;2.00;;;21.60;52.30;;;;;;4954879;28;20198;-62
2022/05/16 05:30:52;;;;;;;1.90;1.80;;;21.60;52.30;;;;;;4954855;28;20193;-63
2022/05/16 05:33:21;;;;;;;2.20;2.00;;;21.60;52.40;;;;;;4953527;28;20277;-62
2022/05/16 05:35:48;;;;;;;2.22;2.00;;;21.60;52.40;;;;;;4958720;29;20202;-62
2022/05/16 05:38:15;;;;;;;2.33;2.10;;;21.60;52.40;;;;;;4957525;28;20198;-62
2022/05/16 05:40:43;;;;;;;2.42;2.00;;;21.60;52.50;;;;;;4958571;28;20210;-62
2022/05/16 05:43:10;;;;;;;2.22;2.10;;;21.60;52.40;;;;;;4958648;28;20211;-62
2022/05/16 05:45:37;;;;;;;2.15;1.95;;;21.60;52.60;;;;;;4958121;28;20198;-62
2022/05/16 05:48:07;;;;;;;2.60;2.40;;;21.70;52.60;;;;;;4957330;28;20214;-62
2022/05/16 05:50:36;;;;;;;2.45;2.28;;;21.70;52.60;;;;;;4957427;29;20297;-62
2022/05/16 05:53:03;;;;;;;2.50;2.30;;;21.70;52.60;;;;;;4957201;28;20297;-62
2022/05/16 05:55:30;;;;;;;2.42;2.22;;;21.70;52.50;;;;;;4957900;28;20199;-62
2022/05/16 05:57:57;;;;;;;2.25;2.05;;;21.70;52.50;;;;;;4957276;28;20206;-62
2022/05/16 06:00:24;;;;;;;2.55;2.35;;;21.70;52.50;;;;;;4957490;28;20281;-62
2022/05/16 06:02:52;;;;;;;2.30;2.10;;;21.70;52.60;;;;;;4956998;28;20226;-62
2022/05/16 06:05:21;;;;;;;2.65;2.15;;;21.70;52.60;;;;;;4958514;28;20199;-62
2022/05/16 06:07:50;;;;;;;2.13;2.03;;;21.70;52.60;;;;;;4957022;28;20250;-62
2022/05/16 06:10:17;;;;;;;2.58;2.38;;;21.70;52.70;;;;;;4957010;28;20195;-62
2022/05/16 06:12:44;;;;;;;2.20;2.10;;;21.70;52.70;;;;;;4958175;28;20764;-62
2022/05/16 06:15:12;;;;;;;2.30;2.10;;;21.70;52.80;;;;;;4957544;28;20616;-62
2022/05/16 06:17:39;;;;;;;2.47;2.20;;;21.70;52.90;;;;;;4958769;28;20219;-62
2022/05/16 06:20:07;;;;;;;2.15;2.00;;;21.80;53.60;;;;;;4958726;28;20215;-62
2022/05/16 06:22:35;;;;;;;1.83;1.73;;;21.80;52.90;;;;;;4958194;28;20191;-62
2022/05/16 06:27:49;;;;;;;2.25;2.10;;;21.90;52.80;;;;;;4957012;28;20234;-62
2022/05/16 06:30:19;;;;;;;3.25;2.15;;;22.00;52.70;;;;;;4956787;28;20576;-62
2022/05/16 06:32:46;;;;;;;2.40;2.20;;;22.00;52.70;;;;;;4958257;28;20217;-62
2022/05/16 06:35:13;;;;;;;2.17;2.08;;;22.10;52.50;;;;;;4957904;28;20622;-62
2022/05/16 06:37:40;;;;;;;2.42;2.30;;;22.20;52.10;;;;;;4956423;28;20218;-62
2022/05/16 06:40:09;;;;;;;2.90;2.40;;;22.20;52.10;;;;;;4957683;28;20721;-62
2022/05/16 06:42:36;;;;;;;2.55;2.35;;;22.30;52.10;;;;;;4957665;28;20625;-62
2022/05/16 06:45:04;;;;;;;2.22;2.10;;;22.30;51.80;;;;;;4957394;28;20202;-62
2022/05/16 06:47:31;;;;;;;2.17;1.98;;;22.40;51.80;;;;;;4957773;29;20197;-62
2022/05/16 06:49:59;;;;;;;4.25;2.20;;;22.40;51.90;;;;;;4957481;28;20217;-62
2022/05/16 06:52:26;;;;;;;2.38;2.15;;;22.50;51.80;;;;;;4957421;28;20637;-62
2022/05/16 06:54:53;;;;;;;4.60;2.78;;;22.70;51.30;;;;;;4956230;28;20203;-62
2022/05/16 06:57:22;;;;;;;2.88;2.50;;;22.90;50.80;;;;;;4956433;28;20203;-62
2022/05/16 06:59:49;;;;;;;2.38;2.17;;;23.20;50.40;;;;;;4957243;28;20191;-62
2022/05/16 07:02:16;;;;;;;3.22;2.45;;;23.50;50.30;;;;;;4956191;29;20622;-62
2022/05/16 07:04:43;;;;;;;7.38;2.88;;;23.70;49.20;;;;;;4957091;28;20311;-62
2022/05/16 07:07:11;;;;;;;2.20;2.10;;;24.00;48.80;;;;;;4955822;28;20222;-62
2022/05/16 07:09:39;;;;;;;3.80;2.33;;;24.20;48.20;;;;;;4955861;28;20748;-62
2022/05/16 07:12:07;;;;;;;2.85;2.60;;;24.30;47.80;;;;;;4955835;28;20195;-62
2022/05/16 07:14:38;;;;;;;3.15;2.28;;;24.50;47.50;;;;;;4956986;28;20215;-62
2022/05/16 07:17:05;;;;;;;3.28;2.50;;;24.60;47.20;;;;;;4955668;28;20262;-62
2022/05/16 07:19:34;;;;;;;2.50;2.30;;;24.70;46.80;;;;;;4956936;28;20576;-62
2022/05/16 07:22:02;;;;;;;2.50;2.30;;;24.90;46.60;;;;;;4955636;28;20238;-62
2022/05/16 07:24:30;;;;;;;3.08;2.50;;;25.00;46.50;;;;;;4956816;28;20710;-62
2022/05/16 07:29:43;;;;;;;2.30;2.10;;;25.10;46.10;;;;;;4955671;28;20191;-63
2022/05/16 07:32:11;;;;;;;2.75;2.10;;;25.10;45.80;;;;;;4956802;29;20254;-62
2022/05/16 07:37:08;;;;;;;2.28;2.08;;;25.40;45.30;;;;;;4972166;28;20226;-71
2022/05/16 07:42:07;;;;;;;2.15;1.90;;;25.50;45.20;;;;;;4954565;29;20711;-71
2022/05/16 07:44:35;;;;;;;2.40;1.90;;;25.40;44.90;;;;;;4954708;29;20285;-73
2022/05/16 07:47:04;;;;;;;2.00;1.80;;;25.30;45.20;;;;;;4954146;29;20243;-71
2022/05/16 07:49:31;;;;;;;1.90;1.58;;;25.20;45.40;;;;;;4954086;29;20223;-73
2022/05/16 07:51:58;;;;;;;2.00;1.80;;;25.10;45.60;;;;;;4954871;29;20218;-72
2022/05/16 07:54:26;;;;;;;2.10;1.80;;;25.00;46.00;;;;;;4955375;29;20201;-72
2022/05/16 07:56:53;;;;;;;1.80;1.70;;;24.90;46.30;;;;;;4954532;28;20223;-72
2022/05/16 07:59:20;;;;;;;2.80;1.90;;;24.80;46.50;;;;;;4955373;29;20202;-72
2022/05/16 08:01:47;;;;;;;1.65;1.55;;;24.60;46.40;;;;;;4955597;29;20229;-72
2022/05/16 08:04:16;;;;;;;1.90;1.80;;;24.60;46.80;;;;;;4955441;29;20202;-72
2022/05/16 08:06:43;;;;;;;3.10;1.90;;;24.50;46.80;;;;;;4955062;29;20226;-72
2022/05/16 08:12:07;;;;;;;2.00;1.90;;;24.50;47.60;;;;;;4900284;29;20247;-72
2022/05/16 08:14:34;;;;;;;2.13;2.00;;;24.50;47.10;;;;;;4942029;29;20253;-72
2022/05/16 08:17:02;;;;;;;2.30;1.80;;;24.50;47.20;;;;;;4954786;29;20277;-72
2022/05/16 08:19:33;;;;;;;2.28;1.80;;;24.50;47.70;;;;;;4954924;29;20739;-72
2022/05/16 08:22:01;;;;;;;1.90;1.80;;;24.40;47.00;;;;;;4954943;29;20219;-72
2022/05/16 08:24:28;;;;;;;1.80;1.70;;;24.40;47.10;;;;;;4954909;29;20257;-72
2022/05/16 08:26:55;;;;;;;1.90;1.80;;;24.40;47.10;;;;;;4955336;29;20625;-72
2022/05/16 08:29:24;;;;;;;1.70;1.60;;;24.40;47.70;;;;;;4954696;29;20230;-72
2022/05/16 08:31:51;;;;;;;2.10;2.00;;;24.30;47.70;;;;;;4954627;29;20203;-72
2022/05/16 08:34:18;;;;;;;1.88;1.77;;;24.30;47.20;;;;;;4954556;29;20632;-72
2022/05/16 08:42:16;;;;;;;2.15;1.95;;;24.20;47.40;;;;;;4954337;29;20218;-72
2022/05/16 08:44:46;;;;;;;1.60;1.50;;;24.20;47.50;;;;;;4954324;29;20206;-72
2022/05/16 08:47:22;;;;;;;1.92;1.73;;;24.20;47.60;;;;;;4954459;29;20198;-72
2022/05/16 08:49:52;;;;;;;1.80;1.70;;;24.20;47.70;;;;;;4954948;29;20197;-72
2022/05/16 08:52:30;;;;;;;2.28;1.80;;;24.20;47.60;;;;;;4954464;29;20210;-72
2022/05/16 08:54:58;;;;;;;1.70;1.60;;;24.20;47.60;;;;;;4954392;29;20194;-72
2022/05/16 08:57:28;;;;;;;1.90;1.80;;;24.30;47.60;;;;;;4954304;29;20253;-72
2022/05/16 08:59:57;;;;;;;1.83;1.73;;;24.30;47.40;;;;;;4954628;29;20234;-72
2022/05/16 09:02:25;;;;;;;1.70;1.60;;;24.50;47.40;;;;;;4954460;29;20313;-72
2022/05/16 09:04:57;;;;;;;1.85;1.75;;;24.50;47.20;;;;;;4954304;29;20199;-72
2022/05/16 09:07:29;;;;;;;2.10;1.95;;;24.70;47.30;;;;;;4954246;28;20209;-72
2022/05/16 09:09:58;;;;;;;2.20;2.00;;;24.80;46.90;;;;;;4954476;29;20585;-72
2022/05/16 09:12:26;;;;;;;2.35;1.60;;;24.90;46.50;;;;;;4954404;29;20219;-72
2022/05/16 09:15:02;;;;;;;2.53;1.90;;;25.10;46.20;;;;;;4954225;29;20198;-72
2022/05/16 09:17:33;;;;;;;2.10;1.90;;;25.30;46.50;;;;;;4954289;29;20253;-72
2022/05/16 09:20:10;;;;;;;1.80;1.70;;;25.40;46.40;;;;;;4954405;29;20591;-72
2022/05/16 09:22:43;;;;;;;1.80;1.70;;;25.40;45.60;;;;;;4954267;29;20289;-72
2022/05/16 09:25:12;;;;;;;1.98;1.88;;;25.30;45.60;;;;;;4954180;29;20230;-72
2022/05/16 09:30:25;;;;;;;2.05;1.85;;;25.20;45.90;;;;;;4954686;29;20560;-72
2022/05/16 09:32:55;;;;;;;1.80;1.70;;;25.10;46.00;;;;;;4954955;29;20202;-72
2022/05/16 09:35:29;;;;;;;2.00;1.90;;;25.20;45.80;;;;;;4954433;29;20264;-72
2022/05/16 09:37:58;;;;;;;1.73;1.63;;;25.20;45.70;;;;;;4954449;29;20198;-72
2022/05/16 09:40:26;;;;;;;1.90;1.80;;;25.40;45.50;;;;;;4954387;29;20210;-72
2022/05/16 09:42:53;;;;;;;1.88;1.77;;;25.50;45.30;;;;;;4954133;29;20205;-72
2022/05/16 09:45:22;;;;;;;1.77;1.67;;;25.50;45.00;;;;;;4953980;29;20273;-72
2022/05/16 09:47:49;;;;;;;1.88;1.77;;;25.60;44.90;;;;;;4954110;29;20286;-72
2022/05/16 09:50:20;;;;;;;1.95;1.80;;;25.60;45.00;;;;;;4953886;29;20209;-72
2022/05/16 09:52:49;;;;;;;1.67;1.58;;;25.60;45.00;;;;;;4954148;29;20203;-72
2022/05/16 09:55:28;;;;;;;1.90;1.80;;;25.60;45.00;;;;;;4954139;29;20219;-72
2022/05/16 09:57:57;;;;;;;1.70;1.60;;;25.60;44.90;;;;;;4953901;29;20261;-72
2022/05/16 10:00:32;;;;;;;1.80;1.70;;;25.60;45.50;;;;;;4953672;29;20234;-72
2022/05/16 10:03:02;;;;;;;1.98;1.73;;;25.60;45.10;;;;;;4954028;29;20686;-72
2022/05/16 10:05:31;;;;;;;1.90;1.80;;;25.50;45.20;;;;;;4953817;29;20222;-72
2022/05/16 10:08:03;;;;;;;1.88;1.77;;;25.40;46.00;;;;;;4953650;29;20318;-72
2022/05/16 10:10:34;;;;;;;2.00;1.90;;;25.40;45.50;;;;;;4953750;29;20258;-72
2022/05/16 10:13:01;;;;;;;1.98;1.77;;;25.30;45.60;;;;;;4953450;29;20214;-72
2022/05/16 10:15:31;;;;;;;1.90;1.80;;;25.20;45.70;;;;;;4953346;29;20222;-72
2022/05/16 10:17:58;;;;;;;1.90;1.80;;;25.10;45.80;;;;;;4953467;29;20550;-72
2022/05/16 10:20:27;;;;;;;1.70;1.60;;;25.10;45.80;;;;;;4955023;28;20203;-72
2022/05/16 10:22:58;;;;;;;1.85;1.75;;;25.10;45.90;;;;;;4957093;29;20214;-72
2022/05/16 10:25:29;;;;;;;2.10;1.90;;;25.10;46.50;;;;;;4973993;23;20222;-65
2022/05/16 10:27:58;;;;;;;1.92;1.83;;;25.10;46.00;;;;;;4976302;28;20226;-67
2022/05/16 10:30:27;;;;;;;1.80;1.70;;;25.10;46.00;;;;;;4976162;28;20190;-66
2022/05/16 10:35:44;;;;;;;2.25;1.63;;;25.00;45.90;;;;;;4979135;28;20226;-66
2022/05/16 10:38:16;;;;;;;1.60;1.50;;;25.10;46.10;;;;;;4957448;28;20217;-67
2022/05/16 10:40:46;;;;;;;1.85;1.75;;;25.00;46.20;;;;;;4957340;28;20195;-67
2022/05/16 10:43:22;;;;;;;1.80;1.70;;;24.90;46.10;;;;;;4958116;28;20190;-67
2022/05/16 10:45:51;;;;;;;2.00;1.90;;;25.00;46.30;;;;;;4957320;28;20222;-67
2022/05/16 10:48:24;;;;;;;2.22;1.75;;;24.90;46.20;;;;;;4956882;28;20195;-67
2022/05/16 10:50:53;;;;;;;1.85;1.75;;;24.90;46.30;;;;;;4956951;28;20213;-66
2022/05/16 10:53:23;;;;;;;1.75;1.65;;;24.90;46.40;;;;;;4956719;28;20203;-67
2022/05/16 10:55:58;;;;;;;2.70;1.80;;;24.90;46.40;;;;;;4956705;28;20222;-67
2022/05/16 10:58:32;;;;;;;1.83;1.73;;;24.90;46.40;;;;;;4956544;28;20230;-67
2022/05/16 11:01:01;;;;;;;1.90;1.80;;;24.90;46.50;;;;;;4956531;28;20224;-67
2022/05/16 11:04:08;;;;;;;1.85;1.73;;;24.90;46.50;;;;;;4956402;28;20202;-66
2022/05/16 11:06:48;;;;;;;1.80;1.70;;;24.80;46.60;;;;;;4901686;29;20287;-67
2022/05/16 11:09:17;;;;;;;1.90;1.80;;;24.80;46.60;;;;;;4901727;29;20230;-67
2022/05/16 11:11:50;;;;;;;1.90;1.80;;;24.80;47.30;;;;;;4932818;29;20203;-67
2022/05/16 11:14:20;;;;;;;1.83;1.73;;;24.70;47.20;;;;;;4956348;28;20277;-67
2022/05/16 11:16:50;;;;;;;1.92;1.83;;;24.80;46.80;;;;;;4956015;28;20277;-67
2022/05/16 11:19:23;;;;;;;1.92;1.83;;;24.70;46.70;;;;;;4956083;28;20206;-67
2022/05/16 11:21:53;;;;;;;1.70;1.60;;;24.70;46.90;;;;;;4956050;28;20257;-67
2022/05/16 11:24:33;;;;;;;1.98;1.88;;;24.70;46.80;;;;;;4957293;28;20187;-67
2022/05/16 11:27:07;;;;;;;1.92;1.83;;;24.70;46.80;;;;;;4959939;28;20326;-67
2022/05/16 11:29:42;;;;;;;1.80;1.70;;;24.70;46.90;;;;;;4960644;28;20198;-67
2022/05/16 11:32:28;;;;;;;1.63;1.52;;;24.70;46.90;;;;;;4954910;28;20202;-67
2022/05/16 11:35:01;;;;;;;1.70;1.60;;;24.70;47.00;;;;;;4955825;28;20199;-66
2022/05/16 11:37:49;;;;;;;1.73;1.63;;;24.60;47.00;;;;;;4955622;28;20258;-67
2022/05/16 11:40:19;;;;;;;1.70;1.60;;;24.60;47.00;;;;;;4955848;28;20245;-67
2022/05/16 11:42:51;;;;;;;1.70;1.60;;;24.60;47.20;;;;;;4956708;28;20584;-67
2022/05/16 11:45:31;;;;;;;1.80;1.70;;;24.60;47.20;;;;;;4955723;28;20226;-66
2022/05/16 11:48:01;;;;;;;1.63;1.52;;;24.50;47.10;;;;;;4955806;28;20694;-67
2022/05/16 11:50:32;;;;;;;2.00;1.90;;;24.50;47.20;;;;;;4955692;28;20203;-66
2022/05/16 11:53:03;;;;;;;1.60;1.50;;;24.50;47.20;;;;;;4955491;28;20249;-67
2022/05/16 12:01:04;;;;;;;1.80;1.70;;;24.40;47.40;;;;;;4955318;28;20206;-66
2022/05/16 12:03:36;;;;;;;1.88;1.77;;;24.40;47.50;;;;;;4956328;28;20191;-67
2022/05/16 12:06:27;;;;;;;1.90;1.80;;;24.40;47.60;;;;;;4955215;28;20318;-67
2022/05/16 12:09:15;;;;;;;2.00;1.80;;;24.40;47.70;;;;;;4955590;28;20249;-67
2022/05/16 12:11:51;;;;;;;2.03;1.83;;;24.40;47.60;;;;;;4955466;28;20195;-67
2022/05/16 12:14:27;;;;;;;1.70;1.60;;;24.40;47.60;;;;;;4955241;28;20270;-67
2022/05/16 12:16:58;;;;;;;1.80;1.70;;;24.40;47.50;;;;;;4955150;28;20245;-67
2022/05/16 12:19:31;;;;;;;1.73;1.63;;;24.40;47.60;;;;;;4956670;28;20175;-66
2022/05/16 12:22:01;;;;;;;1.80;1.70;;;24.30;47.50;;;;;;4955553;28;20222;-67
2022/05/16 12:24:31;;;;;;;1.70;1.60;;;24.30;47.50;;;;;;4955871;28;20208;-67
2022/05/16 12:27:07;;;;;;;1.70;1.60;;;24.30;47.60;;;;;;4954753;28;20234;-67
2022/05/16 12:29:46;;;;;;;1.83;1.73;;;24.30;48.20;;;;;;4955539;28;20201;-67
2022/05/16 12:32:49;;;;;;;1.70;1.60;;;24.30;47.70;;;;;;4955340;28;20197;-65
2022/05/16 12:35:18;;;;;;;1.77;1.67;;;24.30;47.70;;;;;;4954888;28;20190;-67
2022/05/16 12:37:45;;;;;;;1.90;1.80;;;24.30;47.70;;;;;;4954730;29;20225;-67
2022/05/16 12:40:16;;;;;;;1.88;1.77;;;24.30;47.70;;;;;;4955101;28;20250;-67
2022/05/16 12:43:08;;;;;;;1.90;1.80;;;24.30;47.80;;;;;;4954304;28;20214;-67
2022/05/16 12:46:05;;;;;;;1.73;1.63;;;24.30;47.80;;;;;;4955047;28;20321;-67
2022/05/16 12:48:56;;;;;;;1.80;1.70;;;24.30;47.90;;;;;;4951928;29;20234;-66
2022/05/16 12:51:47;;;;;;;1.83;1.73;;;24.30;47.90;;;;;;4955016;28;20277;-67
2022/05/16 12:54:34;;;;;;;1.50;1.40;;;24.30;47.90;;;;;;4954538;28;20199;-66
2022/05/16 12:57:04;;;;;;;2.05;1.73;;;24.30;48.60;;;;;;4954816;28;20700;-67
2022/05/16 12:59:47;;;;;;;1.90;1.80;;;24.30;48.00;;;;;;4954756;28;20576;-67
2022/05/16 13:02:18;;;;;;;1.77;1.67;;;24.30;47.90;;;;;;4954634;28;20312;-67
2022/05/16 13:04:55;;;;;;;1.80;1.70;;;24.30;47.90;;;;;;4954686;28;20285;-67
2022/05/16 13:07:25;;;;;;;2.20;1.63;;;24.30;47.90;;;;;;4954315;28;20702;-67
2022/05/16 13:09:58;;;;;;;1.70;1.60;;;24.40;47.90;;;;;;4954620;28;20294;-67
2022/05/16 13:12:41;;;;;;;1.60;1.50;;;24.40;47.80;;;;;;4954707;28;20183;-67
2022/05/16 13:15:10;;;;;;;1.70;1.60;;;24.40;47.80;;;;;;4954498;28;20246;-67
2022/05/16 13:17:39;;;;;;;1.80;1.70;;;24.50;47.80;;;;;;4954716;28;20210;-67
2022/05/16 13:20:09;;;;;;;2.00;1.80;;;24.50;47.70;;;;;;4954388;28;20273;-65
2022/05/16 13:22:37;;;;;;;1.80;1.70;;;24.50;47.70;;;;;;4954547;28;20225;-67
2022/05/16 13:25:05;;;;;;;1.80;1.70;;;24.60;47.70;;;;;;4954381;28;20297;-66
2022/05/16 13:30:19;;;;;;;1.73;1.60;;;24.60;47.70;;;;;;4954395;28;20198;-67
2022/05/16 13:32:47;;;;;;;2.00;1.80;;;24.60;47.70;;;;;;4954477;28;20190;-67
2022/05/16 13:35:18;;;;;;;1.88;1.77;;;24.60;47.70;;;;;;4954449;28;20206;-67
2022/05/16 13:37:45;;;;;;;1.75;1.65;;;24.60;47.70;;;;;;4954752;29;20199;-66
2022/05/16 13:40:21;;;;;;;1.65;1.50;;;24.60;47.70;;;;;;4954843;28;20294;-67
2022/05/16 13:42:48;;;;;;;1.92;1.83;;;24.60;47.70;;;;;;4955038;28;20647;-67
2022/05/16 13:45:16;;;;;;;1.50;1.48;;;24.60;47.70;;;;;;4954623;28;20217;-67
2022/05/16 13:47:44;;;;;;;1.85;1.75;;;24.60;47.80;;;;;;4954440;29;20223;-67
2022/05/16 13:50:22;;;;;;;1.85;1.75;;;24.60;47.80;;;;;;4954634;29;20520;-67
2022/05/16 13:52:49;;;;;;;1.75;1.58;;;24.60;47.80;;;;;;4954017;28;20187;-67